sensor_id;sensor_type;location;lat;lon;timestamp;P1;durP1;ratioP1;P2;durP2;ratioP2
17201;SDS011;8717;53.588;10.176;2023-04-24T00:00:59;4.80;;;4.17;;
17201;SDS011;8717;53.588;10.176;2023-04-24T00:03:27;5.30;;;4.80;;
17201;SDS011;8717;53.588;10.176;2023-04-24T00:05:55;5.47;;;4.97;;
17201;SDS011;8717;53.588;10.176;2023-04-24T00:08:22;6.60;;;5.00;;
17201;SDS011;8717;53.588;10.176;2023-04-24T00:10:50;5.80;;;5.20;;
17201;SDS011;8717;53.588;10.176;2023-04-24T00:13:17;6.47;;;5.40;;
17201;SDS011;8717;53.588;10.176;2023-04-24T00:15:44;7.57;;;5.20;;
17201;SDS011;8717;53.588;10.176;2023-04-24T00:18:11;5.83;;;4.80;;
17201;SDS011;8717;53.588;10.176;2023-04-24T00:20:38;6.70;;;5.53;;
17201;SDS011;8717;53.588;10.176;2023-04-24T00:23:05;7.80;;;5.30;;
17201;SDS011;8717;53.588;10.176;2023-04-24T00:25:31;5.80;;;5.20;;
17201;SDS011;8717;53.588;10.176;2023-04-24T00:27:59;5.57;;;4.93;;
17201;SDS011;8717;53.588;10.176;2023-04-24T00:30:26;5.80;;;5.13;;
17201;SDS011;8717;53.588;10.176;2023-04-24T00:32:53;7.03;;;5.37;;
17201;SDS011;8717;53.588;10.176;2023-04-24T00:35:21;5.97;;;5.37;;
17201;SDS011;8717;53.588;10.176;2023-04-24T00:37:48;6.60;;;5.30;;
17201;SDS011;8717;53.588;10.176;2023-04-24T00:40:15;6.47;;;5.33;;
17201;SDS011;8717;53.588;10.176;2023-04-24T00:42:41;6.27;;;5.63;;
17201;SDS011;8717;53.588;10.176;2023-04-24T00:45:11;7.93;;;5.93;;
17201;SDS011;8717;53.588;10.176;2023-04-24T00:47:38;6.43;;;5.67;;
17201;SDS011;8717;53.588;10.176;2023-04-24T00:50:06;6.43;;;5.83;;
17201;SDS011;8717;53.588;10.176;2023-04-24T00:52:33;6.30;;;5.67;;
17201;SDS011;8717;53.588;10.176;2023-04-24T00:55:01;8.07;;;6.83;;
17201;SDS011;8717;53.588;10.176;2023-04-24T00:57:28;6.27;;;5.67;;
17201;SDS011;8717;53.588;10.176;2023-04-24T00:59:55;9.53;;;6.50;;
17201;SDS011;8717;53.588;10.176;2023-04-24T01:02:23;6.60;;;6.00;;
17201;SDS011;8717;53.588;10.176;2023-04-24T01:04:51;7.40;;;6.60;;
17201;SDS011;8717;53.588;10.176;2023-04-24T01:07:19;6.83;;;6.03;;
17201;SDS011;8717;53.588;10.176;2023-04-24T01:09:46;7.13;;;6.23;;
17201;SDS011;8717;53.588;10.176;2023-04-24T01:12:17;7.37;;;6.50;;
17201;SDS011;8717;53.588;10.176;2023-04-24T01:14:44;6.80;;;6.07;;
17201;SDS011;8717;53.588;10.176;2023-04-24T01:17:11;6.67;;;5.93;;
17201;SDS011;8717;53.588;10.176;2023-04-24T01:19:39;7.30;;;6.27;;
17201;SDS011;8717;53.588;10.176;2023-04-24T01:22:11;6.53;;;5.90;;
17201;SDS011;8717;53.588;10.176;2023-04-24T01:24:40;5.73;;;5.23;;
17201;SDS011;8717;53.588;10.176;2023-04-24T01:27:06;6.10;;;5.50;;
17201;SDS011;8717;53.588;10.176;2023-04-24T01:29:34;5.70;;;5.10;;
17201;SDS011;8717;53.588;10.176;2023-04-24T01:32:02;7.57;;;5.20;;
17201;SDS011;8717;53.588;10.176;2023-04-24T01:34:30;4.63;;;4.13;;
17201;SDS011;8717;53.588;10.176;2023-04-24T01:36:57;5.70;;;4.40;;
17201;SDS011;8717;53.588;10.176;2023-04-24T01:39:26;4.30;;;3.80;;
17201;SDS011;8717;53.588;10.176;2023-04-24T01:41:53;4.17;;;3.73;;
17201;SDS011;8717;53.588;10.176;2023-04-24T01:44:20;4.87;;;3.97;;
17201;SDS011;8717;53.588;10.176;2023-04-24T01:46:47;4.63;;;4.10;;
17201;SDS011;8717;53.588;10.176;2023-04-24T01:49:14;4.27;;;3.53;;
17201;SDS011;8717;53.588;10.176;2023-04-24T01:51:41;5.37;;;3.80;;
17201;SDS011;8717;53.588;10.176;2023-04-24T01:54:08;4.23;;;3.57;;
17201;SDS011;8717;53.588;10.176;2023-04-24T01:56:36;3.93;;;3.20;;
17201;SDS011;8717;53.588;10.176;2023-04-24T01:59:07;3.30;;;3.00;;
17201;SDS011;8717;53.588;10.176;2023-04-24T02:01:36;3.90;;;3.50;;
17201;SDS011;8717;53.588;10.176;2023-04-24T02:04:02;3.50;;;3.20;;
17201;SDS011;8717;53.588;10.176;2023-04-24T02:06:30;4.27;;;3.30;;
17201;SDS011;8717;53.588;10.176;2023-04-24T02:08:59;5.93;;;3.43;;
17201;SDS011;8717;53.588;10.176;2023-04-24T02:11:27;3.33;;;3.03;;
17201;SDS011;8717;53.588;10.176;2023-04-24T02:13:55;4.47;;;3.00;;
17201;SDS011;8717;53.588;10.176;2023-04-24T02:16:21;3.10;;;2.80;;
17201;SDS011;8717;53.588;10.176;2023-04-24T02:18:49;3.70;;;2.90;;
17201;SDS011;8717;53.588;10.176;2023-04-24T02:21:16;3.70;;;2.93;;
17201;SDS011;8717;53.588;10.176;2023-04-24T02:23:43;4.70;;;3.00;;
17201;SDS011;8717;53.588;10.176;2023-04-24T02:26:11;4.87;;;3.40;;
17201;SDS011;8717;53.588;10.176;2023-04-24T02:28:38;3.50;;;3.20;;
17201;SDS011;8717;53.588;10.176;2023-04-24T02:31:07;3.50;;;3.20;;
17201;SDS011;8717;53.588;10.176;2023-04-24T02:33:33;4.03;;;3.03;;
17201;SDS011;8717;53.588;10.176;2023-04-24T02:36:00;3.30;;;2.83;;
17201;SDS011;8717;53.588;10.176;2023-04-24T02:38:27;3.50;;;3.03;;
17201;SDS011;8717;53.588;10.176;2023-04-24T02:40:54;3.00;;;2.70;;
17201;SDS011;8717;53.588;10.176;2023-04-24T02:43:21;3.30;;;3.00;;
17201;SDS011;8717;53.588;10.176;2023-04-24T02:45:48;3.27;;;2.90;;
17201;SDS011;8717;53.588;10.176;2023-04-24T02:48:16;4.27;;;2.97;;
17201;SDS011;8717;53.588;10.176;2023-04-24T02:50:43;3.47;;;2.73;;
17201;SDS011;8717;53.588;10.176;2023-04-24T02:53:10;3.17;;;2.60;;
17201;SDS011;8717;53.588;10.176;2023-04-24T02:55:37;3.03;;;2.30;;
17201;SDS011;8717;53.588;10.176;2023-04-24T02:58:04;2.50;;;2.30;;
17201;SDS011;8717;53.588;10.176;2023-04-24T03:00:31;2.67;;;2.47;;
17201;SDS011;8717;53.588;10.176;2023-04-24T03:02:58;2.40;;;2.20;;
17201;SDS011;8717;53.588;10.176;2023-04-24T03:05:26;2.60;;;2.27;;
17201;SDS011;8717;53.588;10.176;2023-04-24T03:07:53;2.03;;;1.83;;
17201;SDS011;8717;53.588;10.176;2023-04-24T03:10:20;2.30;;;2.10;;
17201;SDS011;8717;53.588;10.176;2023-04-24T03:12:48;3.60;;;2.17;;
17201;SDS011;8717;53.588;10.176;2023-04-24T03:15:17;2.00;;;1.90;;
17201;SDS011;8717;53.588;10.176;2023-04-24T03:17:44;3.03;;;1.80;;
17201;SDS011;8717;53.588;10.176;2023-04-24T03:20:11;2.40;;;1.87;;
17201;SDS011;8717;53.588;10.176;2023-04-24T03:22:39;2.17;;;1.60;;
17201;SDS011;8717;53.588;10.176;2023-04-24T03:25:07;2.10;;;1.70;;
17201;SDS011;8717;53.588;10.176;2023-04-24T03:27:35;1.77;;;1.30;;
17201;SDS011;8717;53.588;10.176;2023-04-24T03:30:21;1.90;;;1.70;;
17201;SDS011;8717;53.588;10.176;2023-04-24T03:32:53;1.67;;;1.47;;
17201;SDS011;8717;53.588;10.176;2023-04-24T03:35:25;1.40;;;1.30;;
17201;SDS011;8717;53.588;10.176;2023-04-24T03:37:54;1.40;;;1.30;;
17201;SDS011;8717;53.588;10.176;2023-04-24T03:40:46;2.90;;;1.50;;
17201;SDS011;8717;53.588;10.176;2023-04-24T03:43:27;2.13;;;1.60;;
17201;SDS011;8717;53.588;10.176;2023-04-24T03:45:56;1.70;;;1.50;;
17201;SDS011;8717;53.588;10.176;2023-04-24T03:48:24;1.43;;;1.33;;
17201;SDS011;8717;53.588;10.176;2023-04-24T03:50:51;1.60;;;1.50;;
17201;SDS011;8717;53.588;10.176;2023-04-24T03:53:20;2.70;;;1.70;;
17201;SDS011;8717;53.588;10.176;2023-04-24T03:55:48;1.80;;;1.70;;
17201;SDS011;8717;53.588;10.176;2023-04-24T03:58:15;1.80;;;1.70;;
17201;SDS011;8717;53.588;10.176;2023-04-24T04:00:43;2.60;;;1.60;;
17201;SDS011;8717;53.588;10.176;2023-04-24T04:03:31;1.60;;;1.27;;
17201;SDS011;8717;53.588;10.176;2023-04-24T04:05:58;1.80;;;1.70;;
17201;SDS011;8717;53.588;10.176;2023-04-24T04:08:27;1.57;;;1.47;;
17201;SDS011;8717;53.588;10.176;2023-04-24T04:10:54;1.47;;;1.37;;
17201;SDS011;8717;53.588;10.176;2023-04-24T04:13:22;1.50;;;1.40;;
17201;SDS011;8717;53.588;10.176;2023-04-24T04:15:49;2.00;;;1.70;;
17201;SDS011;8717;53.588;10.176;2023-04-24T04:18:16;1.50;;;1.40;;
17201;SDS011;8717;53.588;10.176;2023-04-24T04:20:42;1.50;;;1.40;;
17201;SDS011;8717;53.588;10.176;2023-04-24T04:23:12;1.67;;;1.57;;
17201;SDS011;8717;53.588;10.176;2023-04-24T04:26:03;1.43;;;1.33;;
17201;SDS011;8717;53.588;10.176;2023-04-24T04:28:46;1.80;;;1.37;;
17201;SDS011;8717;53.588;10.176;2023-04-24T04:31:13;1.47;;;1.33;;
17201;SDS011;8717;53.588;10.176;2023-04-24T04:33:39;1.50;;;1.40;;
17201;SDS011;8717;53.588;10.176;2023-04-24T04:36:08;1.73;;;1.30;;
17201;SDS011;8717;53.588;10.176;2023-04-24T04:38:38;2.40;;;1.30;;
17201;SDS011;8717;53.588;10.176;2023-04-24T04:41:15;1.37;;;1.27;;
17201;SDS011;8717;53.588;10.176;2023-04-24T04:43:44;1.33;;;1.23;;
17201;SDS011;8717;53.588;10.176;2023-04-24T04:46:12;1.40;;;1.30;;
17201;SDS011;8717;53.588;10.176;2023-04-24T04:48:55;3.93;;;1.40;;
17201;SDS011;8717;53.588;10.176;2023-04-24T04:51:23;1.40;;;1.30;;
17201;SDS011;8717;53.588;10.176;2023-04-24T04:53:50;1.37;;;1.27;;
17201;SDS011;8717;53.588;10.176;2023-04-24T04:56:18;1.47;;;1.30;;
17201;SDS011;8717;53.588;10.176;2023-04-24T04:58:45;1.40;;;1.20;;
17201;SDS011;8717;53.588;10.176;2023-04-24T05:01:14;1.90;;;1.30;;
17201;SDS011;8717;53.588;10.176;2023-04-24T05:03:44;2.27;;;1.60;;
17201;SDS011;8717;53.588;10.176;2023-04-24T05:06:14;1.20;;;1.10;;
17201;SDS011;8717;53.588;10.176;2023-04-24T05:08:42;1.70;;;1.60;;
17201;SDS011;8717;53.588;10.176;2023-04-24T05:11:15;2.13;;;1.93;;
17201;SDS011;8717;53.588;10.176;2023-04-24T05:13:44;2.97;;;2.27;;
17201;SDS011;8717;53.588;10.176;2023-04-24T05:16:16;2.07;;;1.53;;
17201;SDS011;8717;53.588;10.176;2023-04-24T05:18:43;1.53;;;1.43;;
17201;SDS011;8717;53.588;10.176;2023-04-24T05:21:13;1.90;;;1.70;;
17201;SDS011;8717;53.588;10.176;2023-04-24T05:23:43;3.43;;;1.60;;
17201;SDS011;8717;53.588;10.176;2023-04-24T05:26:13;1.60;;;1.50;;
17201;SDS011;8717;53.588;10.176;2023-04-24T05:28:42;2.20;;;1.23;;
17201;SDS011;8717;53.588;10.176;2023-04-24T05:31:11;1.33;;;0.90;;
17201;SDS011;8717;53.588;10.176;2023-04-24T05:33:38;2.43;;;1.30;;
17201;SDS011;8717;53.588;10.176;2023-04-24T05:36:05;1.83;;;1.40;;
17201;SDS011;8717;53.588;10.176;2023-04-24T05:38:33;1.20;;;1.10;;
17201;SDS011;8717;53.588;10.176;2023-04-24T05:40:59;1.10;;;0.90;;
17201;SDS011;8717;53.588;10.176;2023-04-24T05:43:26;2.90;;;1.30;;
17201;SDS011;8717;53.588;10.176;2023-04-24T05:45:54;1.30;;;1.20;;
17201;SDS011;8717;53.588;10.176;2023-04-24T05:48:21;2.90;;;1.40;;
17201;SDS011;8717;53.588;10.176;2023-04-24T05:50:48;0.80;;;0.80;;
17201;SDS011;8717;53.588;10.176;2023-04-24T05:53:16;1.17;;;0.90;;
17201;SDS011;8717;53.588;10.176;2023-04-24T05:55:43;0.97;;;0.90;;
17201;SDS011;8717;53.588;10.176;2023-04-24T05:58:10;1.60;;;0.97;;
17201;SDS011;8717;53.588;10.176;2023-04-24T06:00:37;1.73;;;1.10;;
17201;SDS011;8717;53.588;10.176;2023-04-24T06:03:08;1.10;;;1.00;;
17201;SDS011;8717;53.588;10.176;2023-04-24T06:05:35;2.30;;;1.17;;
17201;SDS011;8717;53.588;10.176;2023-04-24T06:08:02;1.30;;;1.20;;
17201;SDS011;8717;53.588;10.176;2023-04-24T06:10:33;1.23;;;1.10;;
17201;SDS011;8717;53.588;10.176;2023-04-24T06:13:00;1.00;;;0.90;;
17201;SDS011;8717;53.588;10.176;2023-04-24T06:15:28;1.50;;;1.13;;
17201;SDS011;8717;53.588;10.176;2023-04-24T06:17:59;1.50;;;1.30;;
17201;SDS011;8717;53.588;10.176;2023-04-24T06:20:27;1.63;;;1.10;;
17201;SDS011;8717;53.588;10.176;2023-04-24T06:22:54;1.37;;;1.10;;
17201;SDS011;8717;53.588;10.176;2023-04-24T06:25:21;2.07;;;1.17;;
17201;SDS011;8717;53.588;10.176;2023-04-24T06:27:49;1.60;;;1.10;;
17201;SDS011;8717;53.588;10.176;2023-04-24T06:30:16;2.30;;;1.17;;
17201;SDS011;8717;53.588;10.176;2023-04-24T06:32:43;1.40;;;1.30;;
17201;SDS011;8717;53.588;10.176;2023-04-24T06:35:10;2.33;;;1.20;;
17201;SDS011;8717;53.588;10.176;2023-04-24T06:37:38;1.20;;;1.10;;
17201;SDS011;8717;53.588;10.176;2023-04-24T06:40:05;1.57;;;0.90;;
17201;SDS011;8717;53.588;10.176;2023-04-24T06:42:33;1.13;;;1.03;;
17201;SDS011;8717;53.588;10.176;2023-04-24T06:45:01;4.13;;;1.30;;
17201;SDS011;8717;53.588;10.176;2023-04-24T06:47:29;1.30;;;1.10;;
17201;SDS011;8717;53.588;10.176;2023-04-24T06:49:55;1.20;;;1.10;;
17201;SDS011;8717;53.588;10.176;2023-04-24T06:52:22;1.53;;;1.20;;
17201;SDS011;8717;53.588;10.176;2023-04-24T06:54:50;4.10;;;1.70;;
17201;SDS011;8717;53.588;10.176;2023-04-24T06:57:17;1.40;;;1.30;;
17201;SDS011;8717;53.588;10.176;2023-04-24T06:59:44;1.60;;;1.50;;
17201;SDS011;8717;53.588;10.176;2023-04-24T07:02:11;4.20;;;1.80;;
17201;SDS011;8717;53.588;10.176;2023-04-24T07:04:38;1.50;;;1.40;;
17201;SDS011;8717;53.588;10.176;2023-04-24T07:07:04;2.33;;;1.60;;
17201;SDS011;8717;53.588;10.176;2023-04-24T07:09:31;2.07;;;1.50;;
17201;SDS011;8717;53.588;10.176;2023-04-24T07:12:01;1.93;;;1.40;;
17201;SDS011;8717;53.588;10.176;2023-04-24T07:14:28;1.90;;;1.50;;
17201;SDS011;8717;53.588;10.176;2023-04-24T07:16:55;2.00;;;1.50;;
17201;SDS011;8717;53.588;10.176;2023-04-24T07:19:22;2.20;;;1.90;;
17201;SDS011;8717;53.588;10.176;2023-04-24T07:21:49;2.13;;;1.80;;
17201;SDS011;8717;53.588;10.176;2023-04-24T07:24:16;1.80;;;1.60;;
17201;SDS011;8717;53.588;10.176;2023-04-24T07:26:42;2.40;;;2.00;;
17201;SDS011;8717;53.588;10.176;2023-04-24T07:29:12;4.37;;;1.90;;
17201;SDS011;8717;53.588;10.176;2023-04-24T07:31:39;1.90;;;1.80;;
17201;SDS011;8717;53.588;10.176;2023-04-24T07:34:06;2.03;;;1.93;;
17201;SDS011;8717;53.588;10.176;2023-04-24T07:36:33;2.70;;;1.90;;
17201;SDS011;8717;53.588;10.176;2023-04-24T07:39:00;1.73;;;1.60;;
17201;SDS011;8717;53.588;10.176;2023-04-24T07:41:26;2.27;;;1.93;;
17201;SDS011;8717;53.588;10.176;2023-04-24T07:43:53;2.00;;;1.80;;
17201;SDS011;8717;53.588;10.176;2023-04-24T07:46:21;2.30;;;2.10;;
17201;SDS011;8717;53.588;10.176;2023-04-24T07:48:49;2.33;;;1.80;;
17201;SDS011;8717;53.588;10.176;2023-04-24T07:51:16;2.80;;;2.00;;
17201;SDS011;8717;53.588;10.176;2023-04-24T07:53:43;2.13;;;1.93;;
17201;SDS011;8717;53.588;10.176;2023-04-24T07:56:10;2.63;;;2.03;;
17201;SDS011;8717;53.588;10.176;2023-04-24T07:58:37;3.10;;;1.97;;
17201;SDS011;8717;53.588;10.176;2023-04-24T08:01:03;2.30;;;2.10;;
17201;SDS011;8717;53.588;10.176;2023-04-24T08:03:31;2.60;;;2.00;;
17201;SDS011;8717;53.588;10.176;2023-04-24T08:05:58;2.10;;;1.90;;
17201;SDS011;8717;53.588;10.176;2023-04-24T08:08:25;3.63;;;2.00;;
17201;SDS011;8717;53.588;10.176;2023-04-24T08:10:52;2.37;;;2.17;;
17201;SDS011;8717;53.588;10.176;2023-04-24T08:13:18;2.40;;;2.20;;
17201;SDS011;8717;53.588;10.176;2023-04-24T08:15:45;4.67;;;2.00;;
17201;SDS011;8717;53.588;10.176;2023-04-24T08:18:12;2.50;;;2.30;;
17201;SDS011;8717;53.588;10.176;2023-04-24T08:20:41;2.77;;;2.13;;
17201;SDS011;8717;53.588;10.176;2023-04-24T08:23:08;3.97;;;2.77;;
17201;SDS011;8717;53.588;10.176;2023-04-24T08:25:35;2.50;;;2.20;;
17201;SDS011;8717;53.588;10.176;2023-04-24T08:28:02;2.73;;;2.53;;
17201;SDS011;8717;53.588;10.176;2023-04-24T08:30:29;2.87;;;2.67;;
17201;SDS011;8717;53.588;10.176;2023-04-24T08:32:56;2.90;;;2.70;;
17201;SDS011;8717;53.588;10.176;2023-04-24T08:35:23;3.13;;;2.23;;
17201;SDS011;8717;53.588;10.176;2023-04-24T08:37:51;2.80;;;2.50;;
17201;SDS011;8717;53.588;10.176;2023-04-24T08:40:19;2.70;;;2.50;;
17201;SDS011;8717;53.588;10.176;2023-04-24T08:42:53;2.83;;;2.47;;
17201;SDS011;8717;53.588;10.176;2023-04-24T08:45:21;3.47;;;2.93;;
17201;SDS011;8717;53.588;10.176;2023-04-24T08:47:48;3.67;;;3.13;;
17201;SDS011;8717;53.588;10.176;2023-04-24T08:50:16;3.30;;;3.00;;
17201;SDS011;8717;53.588;10.176;2023-04-24T08:52:43;3.60;;;3.30;;
17201;SDS011;8717;53.588;10.176;2023-04-24T08:55:11;4.13;;;3.50;;
17201;SDS011;8717;53.588;10.176;2023-04-24T08:57:38;4.20;;;3.70;;
17201;SDS011;8717;53.588;10.176;2023-04-24T09:00:06;4.60;;;4.20;;
17201;SDS011;8717;53.588;10.176;2023-04-24T09:02:33;4.67;;;4.27;;
17201;SDS011;8717;53.588;10.176;2023-04-24T09:05:00;4.40;;;4.00;;
17201;SDS011;8717;53.588;10.176;2023-04-24T09:07:28;5.13;;;3.97;;
17201;SDS011;8717;53.588;10.176;2023-04-24T09:09:57;4.17;;;3.80;;
17201;SDS011;8717;53.588;10.176;2023-04-24T09:12:26;3.30;;;3.00;;
17201;SDS011;8717;53.588;10.176;2023-04-24T09:14:53;3.80;;;3.43;;
17201;SDS011;8717;53.588;10.176;2023-04-24T09:17:20;3.40;;;3.10;;
17201;SDS011;8717;53.588;10.176;2023-04-24T09:19:48;4.03;;;3.20;;
17201;SDS011;8717;53.588;10.176;2023-04-24T09:22:15;3.00;;;2.70;;
17201;SDS011;8717;53.588;10.176;2023-04-24T09:24:42;2.90;;;2.70;;
17201;SDS011;8717;53.588;10.176;2023-04-24T09:27:11;2.40;;;2.17;;
17201;SDS011;8717;53.588;10.176;2023-04-24T09:29:39;4.57;;;2.70;;
17201;SDS011;8717;53.588;10.176;2023-04-24T09:32:20;5.07;;;2.80;;
17201;SDS011;8717;53.588;10.176;2023-04-24T09:34:50;2.93;;;2.73;;
17201;SDS011;8717;53.588;10.176;2023-04-24T09:37:34;2.93;;;2.63;;
17201;SDS011;8717;53.588;10.176;2023-04-24T09:40:08;3.83;;;3.43;;
17201;SDS011;8717;53.588;10.176;2023-04-24T09:42:39;3.40;;;3.10;;
17201;SDS011;8717;53.588;10.176;2023-04-24T09:45:10;4.27;;;3.63;;
17201;SDS011;8717;53.588;10.176;2023-04-24T09:47:37;3.70;;;3.40;;
17201;SDS011;8717;53.588;10.176;2023-04-24T09:50:13;4.50;;;3.93;;
17201;SDS011;8717;53.588;10.176;2023-04-24T09:52:42;4.97;;;4.17;;
17201;SDS011;8717;53.588;10.176;2023-04-24T09:55:16;4.00;;;3.70;;
17201;SDS011;8717;53.588;10.176;2023-04-24T09:57:48;4.33;;;3.80;;
17201;SDS011;8717;53.588;10.176;2023-04-24T10:00:22;4.57;;;4.13;;
17201;SDS011;8717;53.588;10.176;2023-04-24T10:02:50;4.00;;;3.70;;
17201;SDS011;8717;53.588;10.176;2023-04-24T10:05:22;5.00;;;4.20;;
17201;SDS011;8717;53.588;10.176;2023-04-24T10:07:49;4.57;;;4.13;;
17201;SDS011;8717;53.588;10.176;2023-04-24T10:10:17;4.97;;;4.30;;
17201;SDS011;8717;53.588;10.176;2023-04-24T10:12:43;4.87;;;4.37;;
17201;SDS011;8717;53.588;10.176;2023-04-24T10:15:10;4.20;;;3.80;;
17201;SDS011;8717;53.588;10.176;2023-04-24T10:17:40;4.77;;;4.30;;
17201;SDS011;8717;53.588;10.176;2023-04-24T10:20:07;5.47;;;4.93;;
17201;SDS011;8717;53.588;10.176;2023-04-24T10:22:34;6.17;;;4.57;;
17201;SDS011;8717;53.588;10.176;2023-04-24T10:25:03;5.10;;;4.60;;
17201;SDS011;8717;53.588;10.176;2023-04-24T10:27:31;5.73;;;4.57;;
17201;SDS011;8717;53.588;10.176;2023-04-24T10:30:00;5.17;;;4.67;;
17201;SDS011;8717;53.588;10.176;2023-04-24T10:32:28;4.80;;;4.40;;
17201;SDS011;8717;53.588;10.176;2023-04-24T10:34:56;6.13;;;4.83;;
17201;SDS011;8717;53.588;10.176;2023-04-24T10:37:23;6.23;;;5.33;;
17201;SDS011;8717;53.588;10.176;2023-04-24T10:39:51;6.00;;;5.30;;
17201;SDS011;8717;53.588;10.176;2023-04-24T10:42:19;5.80;;;4.97;;
17201;SDS011;8717;53.588;10.176;2023-04-24T10:44:47;6.77;;;6.00;;
17201;SDS011;8717;53.588;10.176;2023-04-24T10:47:14;7.07;;;5.57;;
17201;SDS011;8717;53.588;10.176;2023-04-24T10:49:40;6.87;;;5.70;;
17201;SDS011;8717;53.588;10.176;2023-04-24T10:52:09;7.73;;;6.00;;
17201;SDS011;8717;53.588;10.176;2023-04-24T10:54:41;6.67;;;5.97;;
17201;SDS011;8717;53.588;10.176;2023-04-24T10:57:27;8.60;;;6.57;;
17201;SDS011;8717;53.588;10.176;2023-04-24T11:00:15;7.93;;;6.67;;
17201;SDS011;8717;53.588;10.176;2023-04-24T11:02:45;8.57;;;6.70;;
17201;SDS011;8717;53.588;10.176;2023-04-24T11:05:15;9.07;;;7.67;;
17201;SDS011;8717;53.588;10.176;2023-04-24T11:10:40;10.70;;;6.07;;
17201;SDS011;8717;53.588;10.176;2023-04-24T11:13:09;8.83;;;6.47;;
17201;SDS011;8717;53.588;10.176;2023-04-24T11:15:36;8.30;;;6.90;;
17201;SDS011;8717;53.588;10.176;2023-04-24T11:18:03;8.23;;;7.33;;
17201;SDS011;8717;53.588;10.176;2023-04-24T11:20:29;9.73;;;7.27;;
17201;SDS011;8717;53.588;10.176;2023-04-24T11:23:00;7.87;;;6.70;;
17201;SDS011;8717;53.588;10.176;2023-04-24T11:25:31;8.07;;;6.67;;
17201;SDS011;8717;53.588;10.176;2023-04-24T11:28:02;7.93;;;7.13;;
17201;SDS011;8717;53.588;10.176;2023-04-24T11:30:30;9.07;;;7.40;;
17201;SDS011;8717;53.588;10.176;2023-04-24T11:33:02;8.00;;;6.83;;
17201;SDS011;8717;53.588;10.176;2023-04-24T11:35:29;7.60;;;6.80;;
17201;SDS011;8717;53.588;10.176;2023-04-24T11:38:02;9.10;;;6.77;;
17201;SDS011;8717;53.588;10.176;2023-04-24T11:40:31;7.53;;;6.73;;
17201;SDS011;8717;53.588;10.176;2023-04-24T11:42:59;6.80;;;6.10;;
17201;SDS011;8717;53.588;10.176;2023-04-24T11:45:27;7.50;;;6.70;;
17201;SDS011;8717;53.588;10.176;2023-04-24T11:47:57;6.97;;;6.33;;
17201;SDS011;8717;53.588;10.176;2023-04-24T11:50:25;8.33;;;6.63;;
17201;SDS011;8717;53.588;10.176;2023-04-24T11:52:53;8.93;;;7.10;;
17201;SDS011;8717;53.588;10.176;2023-04-24T11:55:24;9.33;;;6.73;;
17201;SDS011;8717;53.588;10.176;2023-04-24T11:57:54;7.07;;;6.17;;
17201;SDS011;8717;53.588;10.176;2023-04-24T12:00:23;7.60;;;5.73;;
17201;SDS011;8717;53.588;10.176;2023-04-24T12:03:03;10.20;;;5.80;;
17201;SDS011;8717;53.588;10.176;2023-04-24T12:05:32;7.47;;;5.23;;
17201;SDS011;8717;53.588;10.176;2023-04-24T12:07:59;7.93;;;5.77;;
17201;SDS011;8717;53.588;10.176;2023-04-24T12:10:26;7.13;;;5.73;;
17201;SDS011;8717;53.588;10.176;2023-04-24T12:12:58;7.63;;;4.97;;
17201;SDS011;8717;53.588;10.176;2023-04-24T12:15:26;6.23;;;4.93;;
17201;SDS011;8717;53.588;10.176;2023-04-24T12:17:53;6.30;;;4.70;;
17201;SDS011;8717;53.588;10.176;2023-04-24T12:20:23;5.00;;;4.50;;
17201;SDS011;8717;53.588;10.176;2023-04-24T12:22:51;5.10;;;4.60;;
17201;SDS011;8717;53.588;10.176;2023-04-24T12:25:20;5.00;;;4.50;;
17201;SDS011;8717;53.588;10.176;2023-04-24T12:27:51;6.77;;;5.00;;
17201;SDS011;8717;53.588;10.176;2023-04-24T12:30:21;4.83;;;4.33;;
17201;SDS011;8717;53.588;10.176;2023-04-24T12:32:53;4.13;;;3.50;;
17201;SDS011;8717;53.588;10.176;2023-04-24T12:35:20;4.50;;;3.60;;
17201;SDS011;8717;53.588;10.176;2023-04-24T12:37:48;4.47;;;4.07;;
17201;SDS011;8717;53.588;10.176;2023-04-24T12:40:20;3.97;;;3.57;;
17201;SDS011;8717;53.588;10.176;2023-04-24T12:42:51;4.03;;;3.50;;
17201;SDS011;8717;53.588;10.176;2023-04-24T12:45:18;4.33;;;3.93;;
17201;SDS011;8717;53.588;10.176;2023-04-24T12:47:48;4.23;;;3.87;;
17201;SDS011;8717;53.588;10.176;2023-04-24T12:50:15;4.30;;;3.90;;
17201;SDS011;8717;53.588;10.176;2023-04-24T12:52:42;5.83;;;3.93;;
17201;SDS011;8717;53.588;10.176;2023-04-24T12:55:09;4.70;;;4.10;;
17201;SDS011;8717;53.588;10.176;2023-04-24T12:57:37;4.27;;;3.80;;
17201;SDS011;8717;53.588;10.176;2023-04-24T13:00:06;5.33;;;4.03;;
17201;SDS011;8717;53.588;10.176;2023-04-24T13:02:36;5.53;;;4.50;;
17201;SDS011;8717;53.588;10.176;2023-04-24T13:05:03;5.03;;;4.23;;
17201;SDS011;8717;53.588;10.176;2023-04-24T13:07:33;6.53;;;4.00;;
17201;SDS011;8717;53.588;10.176;2023-04-24T13:10:00;4.40;;;4.00;;
17201;SDS011;8717;53.588;10.176;2023-04-24T13:12:26;4.17;;;3.77;;
17201;SDS011;8717;53.588;10.176;2023-04-24T13:14:54;4.13;;;3.70;;
17201;SDS011;8717;53.588;10.176;2023-04-24T13:17:23;3.30;;;3.00;;
17201;SDS011;8717;53.588;10.176;2023-04-24T13:19:53;4.43;;;3.77;;
17201;SDS011;8717;53.588;10.176;2023-04-24T13:22:22;3.60;;;3.30;;
17201;SDS011;8717;53.588;10.176;2023-04-24T13:24:50;3.37;;;3.03;;
17201;SDS011;8717;53.588;10.176;2023-04-24T13:27:17;3.90;;;3.00;;
17201;SDS011;8717;53.588;10.176;2023-04-24T13:29:44;4.93;;;3.20;;
17201;SDS011;8717;53.588;10.176;2023-04-24T13:32:14;5.30;;;3.67;;
17201;SDS011;8717;53.588;10.176;2023-04-24T13:34:41;4.60;;;3.50;;
17201;SDS011;8717;53.588;10.176;2023-04-24T13:37:09;5.30;;;3.90;;
17201;SDS011;8717;53.588;10.176;2023-04-24T13:39:35;5.83;;;4.73;;
17201;SDS011;8717;53.588;10.176;2023-04-24T13:42:02;4.07;;;3.63;;
17201;SDS011;8717;53.588;10.176;2023-04-24T13:44:30;3.57;;;3.27;;
17201;SDS011;8717;53.588;10.176;2023-04-24T13:46:57;4.40;;;3.77;;
17201;SDS011;8717;53.588;10.176;2023-04-24T13:49:25;4.90;;;3.23;;
17201;SDS011;8717;53.588;10.176;2023-04-24T13:51:52;3.57;;;3.27;;
17201;SDS011;8717;53.588;10.176;2023-04-24T13:54:21;5.33;;;3.07;;
17201;SDS011;8717;53.588;10.176;2023-04-24T13:56:48;5.13;;;3.63;;
17201;SDS011;8717;53.588;10.176;2023-04-24T13:59:15;3.10;;;2.80;;
17201;SDS011;8717;53.588;10.176;2023-04-24T14:01:42;3.50;;;3.20;;
17201;SDS011;8717;53.588;10.176;2023-04-24T14:04:10;3.37;;;2.80;;
17201;SDS011;8717;53.588;10.176;2023-04-24T14:06:37;3.50;;;2.90;;
17201;SDS011;8717;53.588;10.176;2023-04-24T14:09:03;3.70;;;2.80;;
17201;SDS011;8717;53.588;10.176;2023-04-24T14:11:33;3.70;;;3.23;;
17201;SDS011;8717;53.588;10.176;2023-04-24T14:14:00;3.33;;;3.03;;
17201;SDS011;8717;53.588;10.176;2023-04-24T14:16:30;3.93;;;3.53;;
17201;SDS011;8717;53.588;10.176;2023-04-24T14:18:57;3.60;;;3.30;;
17201;SDS011;8717;53.588;10.176;2023-04-24T14:21:24;3.30;;;3.00;;
17201;SDS011;8717;53.588;10.176;2023-04-24T14:23:50;3.60;;;3.30;;
17201;SDS011;8717;53.588;10.176;2023-04-24T14:26:17;3.80;;;3.30;;
17201;SDS011;8717;53.588;10.176;2023-04-24T14:28:45;6.10;;;3.73;;
17201;SDS011;8717;53.588;10.176;2023-04-24T14:31:12;3.97;;;3.57;;
17201;SDS011;8717;53.588;10.176;2023-04-24T14:33:38;4.67;;;4.17;;
17201;SDS011;8717;53.588;10.176;2023-04-24T14:36:08;4.83;;;3.83;;
17201;SDS011;8717;53.588;10.176;2023-04-24T14:38:35;4.57;;;3.47;;
17201;SDS011;8717;53.588;10.176;2023-04-24T14:41:01;3.63;;;3.33;;
17201;SDS011;8717;53.588;10.176;2023-04-24T14:43:34;3.47;;;3.17;;
17201;SDS011;8717;53.588;10.176;2023-04-24T14:46:02;3.50;;;3.20;;
17201;SDS011;8717;53.588;10.176;2023-04-24T14:48:29;4.07;;;3.50;;
17201;SDS011;8717;53.588;10.176;2023-04-24T14:50:56;3.43;;;3.03;;
17201;SDS011;8717;53.588;10.176;2023-04-24T14:53:23;3.23;;;2.93;;
17201;SDS011;8717;53.588;10.176;2023-04-24T14:55:50;3.60;;;3.30;;
17201;SDS011;8717;53.588;10.176;2023-04-24T14:58:17;3.67;;;3.37;;